Time;durP1;ratioP1;P1;durP2;ratioP2;P2;SDS_P1;SDS_P2;PMS_P1;PMS_P2;Temp;Humidity;BMP_temperature;BMP_pressure;BME280_temperature;BME280_humidity;BME280_pressure;Samples;Min_cycle;Max_cycle;Signal;HPM_P1;HPM_P2
2023/11/30 00:03:55;;;;;;;;;16.25;16.25;;;;;24.58;29.15;100871.75;245460;1183;74355;-75
2023/11/30 00:08:59;;;;;;;;;12.50;12.50;;;;;24.57;29.03;100880.67;245468;1177;73329;-75
2023/11/30 00:14:04;;;;;;;;;12.25;11.75;;;;;24.56;29.17;100890.89;245481;1183;73260;-75
2023/11/30 00:19:08;;;;;;;;;14.50;14.50;;;;;24.55;29.13;100899.78;245471;1183;73318;-75
2023/11/30 00:24:12;;;;;;;;;14.00;14.00;;;;;24.55;29.11;100904.91;245447;1183;73367;-75
2023/11/30 00:29:16;;;;;;;;;16.50;15.00;;;;;24.54;29.10;100910.73;245458;1183;72874;-75
2023/11/30 00:34:19;;;;;;;;;14.00;14.00;;;;;24.53;29.12;100917.00;245451;1183;73321;-75
2023/11/30 00:39:23;;;;;;;;;16.25;14.00;;;;;24.52;29.19;100920.80;245459;1177;73350;-75
2023/11/30 00:44:27;;;;;;;;;12.00;12.00;;;;;24.52;29.08;100940.90;245478;1178;73529;-75
2023/11/30 00:49:31;;;;;;;;;12.00;12.00;;;;;24.51;29.27;100943.58;245436;1184;72625;-75
2023/11/30 00:54:35;;;;;;;;;13.25;12.25;;;;;24.50;29.14;100948.30;245466;1183;73646;-76
2023/11/30 00:59:39;;;;;;;;;13.75;12.75;;;;;24.49;29.14;100957.70;245461;1183;73591;-75
2023/11/30 01:04:42;;;;;;;;;13.25;12.50;;;;;24.48;29.12;100956.13;245441;1183;73198;-75
2023/11/30 01:09:46;;;;;;;;;16.00;16.00;;;;;24.48;29.19;100964.05;245451;1191;73532;-75
2023/11/30 01:14:51;;;;;;;;;13.25;13.25;;;;;24.47;29.15;100977.64;245439;1183;73689;-75
2023/11/30 01:19:56;;;;;;;;;14.50;13.75;;;;;24.47;29.15;100988.40;245443;1191;72726;-75
2023/11/30 01:25:01;;;;;;;;;13.00;13.00;;;;;24.46;29.06;100997.34;245510;1182;73500;-75
2023/11/30 01:30:05;;;;;;;;;12.67;12.00;;;;;24.45;29.15;100991.30;245473;1182;72853;-75
2023/11/30 01:35:09;;;;;;;;;14.00;14.00;;;;;24.44;29.10;100998.55;245432;1181;73432;-75
2023/11/30 01:40:13;;;;;;;;;12.67;11.00;;;;;24.43;29.15;100999.38;245442;1191;73644;-75
2023/11/30 01:45:17;;;;;;;;;12.00;12.00;;;;;24.42;29.10;101003.09;245439;1182;73804;-75
2023/11/30 01:50:22;;;;;;;;;14.75;13.00;;;;;24.41;29.16;101010.39;245414;1184;73492;-75
2023/11/30 01:55:26;;;;;;;;;13.25;12.50;;;;;24.41;29.10;101024.98;245460;1183;72950;-75
2023/11/30 02:00:30;;;;;;;;;12.75;12.75;;;;;24.40;29.10;101032.98;245447;1182;74291;-75
2023/11/30 02:05:35;;;;;;;;;12.25;12.25;;;;;24.39;29.10;101033.80;245419;1182;73576;-75
2023/11/30 02:10:39;;;;;;;;;13.75;13.75;;;;;24.39;29.10;101044.28;245455;1183;73084;-74
2023/11/30 02:15:42;;;;;;;;;11.00;11.00;;;;;24.38;29.01;101046.05;245475;1177;72413;-75
2023/11/30 02:20:47;;;;;;;;;13.25;12.75;;;;;24.37;29.08;101042.16;245469;1183;73464;-75
2023/11/30 02:25:50;;;;;;;;;13.00;13.00;;;;;24.36;29.17;101037.22;245454;1180;73366;-75
2023/11/30 02:30:55;;;;;;;;;12.25;12.25;;;;;24.35;29.09;101039.57;245454;1179;72922;-75
2023/11/30 02:35:58;;;;;;;;;12.25;12.25;;;;;24.35;29.08;101035.79;245458;1182;74335;-75
2023/11/30 02:41:02;;;;;;;;;10.25;10.25;;;;;24.34;29.13;101046.22;245474;1183;73194;-75
2023/11/30 02:46:09;;;;;;;;;13.50;12.75;;;;;24.33;29.00;101052.39;245461;1182;74225;-75
2023/11/30 02:51:13;;;;;;;;;14.33;13.00;;;;;24.32;29.02;101061.71;245430;1183;74296;-75
2023/11/30 02:56:17;;;;;;;;;13.75;13.75;;;;;24.32;29.13;101072.09;245432;1184;73227;-75
2023/11/30 03:01:21;;;;;;;;;11.00;11.00;;;;;24.30;29.01;101071.18;245435;1184;74202;-76
2023/11/30 03:06:25;;;;;;;;;13.75;13.50;;;;;24.30;29.04;101073.68;245483;1180;72695;-75
2023/11/30 03:11:30;;;;;;;;;14.75;13.50;;;;;24.29;29.07;101085.79;245464;1178;72839;-75
2023/11/30 03:16:34;;;;;;;;;12.25;12.25;;;;;24.28;29.10;101093.25;245440;1191;73671;-75
2023/11/30 03:21:38;;;;;;;;;12.25;12.25;;;;;24.28;29.08;101100.56;245449;1183;73725;-75
2023/11/30 03:26:42;;;;;;;;;12.50;10.50;;;;;24.27;29.12;101101.02;245458;1179;73767;-75
2023/11/30 03:31:46;;;;;;;;;15.75;14.50;;;;;24.26;29.09;101106.41;245459;1183;74428;-75
2023/11/30 03:36:50;;;;;;;;;12.75;12.25;;;;;24.25;29.03;101110.26;245441;1182;72883;-75
2023/11/30 03:41:54;;;;;;;;;12.25;12.25;;;;;24.25;29.09;101113.58;245418;1177;72834;-75
2023/11/30 03:46:59;;;;;;;;;12.25;12.25;;;;;24.24;28.96;101104.85;245470;1177;73199;-75
2023/11/30 03:52:04;;;;;;;;;13.00;12.50;;;;;24.23;29.07;101104.27;245394;1177;72945;-75
2023/11/30 03:57:08;;;;;;;;;14.50;13.25;;;;;24.22;29.17;101112.39;245443;1183;73027;-76
2023/11/30 04:02:13;;;;;;;;;13.25;13.25;;;;;24.21;29.07;101106.41;245479;1182;72711;-74
2023/11/30 04:07:17;;;;;;;;;11.33;11.00;;;;;24.21;29.01;101108.70;245472;1182;74411;-74
2023/11/30 04:12:21;;;;;;;;;11.00;11.00;;;;;24.20;29.05;101116.64;245465;1183;73010;-75
2023/11/30 04:17:25;;;;;;;;;10.25;10.25;;;;;24.18;29.17;101123.59;245438;1183;72956;-74
2023/11/30 04:22:29;;;;;;;;;15.00;15.00;;;;;24.17;29.06;101126.29;245407;1191;73588;-74
2023/11/30 04:27:33;;;;;;;;;13.00;13.00;;;;;24.17;29.12;101130.11;245434;1183;73758;-74
2023/11/30 04:32:37;;;;;;;;;16.00;14.00;;;;;24.16;29.09;101121.89;245460;1177;72715;-74
2023/11/30 04:37:41;;;;;;;;;14.50;13.25;;;;;24.16;29.22;101130.84;245432;1183;73641;-74
2023/11/30 04:42:45;;;;;;;;;12.75;12.75;;;;;24.16;29.04;101132.57;245463;1183;73565;-74
2023/11/30 04:47:49;;;;;;;;;13.00;13.00;;;;;24.15;29.09;101140.70;245438;1183;73923;-74
2023/11/30 04:52:54;;;;;;;;;12.25;12.25;;;;;24.14;29.11;101151.77;245447;1183;72911;-74
2023/11/30 04:57:58;;;;;;;;;12.50;12.50;;;;;24.14;29.10;101157.77;245424;1182;72955;-74
2023/11/30 05:03:02;;;;;;;;;12.50;11.50;;;;;24.13;29.09;101167.90;245480;1182;72856;-75
2023/11/30 05:08:06;;;;;;;;;12.25;12.25;;;;;24.13;29.07;101168.10;245465;1180;73479;-75
2023/11/30 05:13:10;;;;;;;;;11.75;11.75;;;;;24.13;29.07;101169.63;245428;1182;72821;-75
2023/11/30 05:18:14;;;;;;;;;11.00;10.25;;;;;24.11;29.05;101178.16;245443;1183;73256;-75
2023/11/30 05:23:18;;;;;;;;;12.25;12.25;;;;;24.10;29.01;101185.24;245446;1180;73493;-75
2023/11/30 05:28:22;;;;;;;;;14.67;14.67;;;;;24.10;29.23;101195.30;245439;1190;73326;-76
2023/11/30 05:33:29;;;;;;;;;14.33;12.33;;;;;24.10;29.22;101192.65;245407;1183;73857;-75
2023/11/30 05:38:33;;;;;;;;;15.25;14.50;;;;;24.09;29.09;101186.31;245379;1191;73209;-75
2023/11/30 05:43:37;;;;;;;;;12.50;12.50;;;;;24.09;29.03;101183.44;245451;1191;73520;-75
2023/11/30 05:48:42;;;;;;;;;11.00;11.00;;;;;24.09;29.03;101178.57;245410;1178;73788;-75
2023/11/30 05:53:46;;;;;;;;;11.75;11.75;;;;;24.09;29.10;101191.69;245464;1180;72960;-75
2023/11/30 05:58:50;;;;;;;;;13.25;11.25;;;;;24.09;29.06;101210.65;245384;1177;73090;-75
2023/11/30 06:03:55;;;;;;;;;12.33;12.33;;;;;24.05;29.15;101222.27;242847;1180;73526;-75
2023/11/30 06:08:59;;;;;;;;;12.33;12.33;;;;;23.90;29.38;101231.08;243066;1177;73787;-75
2023/11/30 06:14:04;;;;;;;;;12.00;12.00;;;;;23.81;29.51;101240.91;242901;1183;73518;-75
2023/11/30 06:19:09;;;;;;;;;11.67;11.67;;;;;23.75;29.53;101252.58;243234;1184;74535;-75
2023/11/30 06:24:14;;;;;;;;;14.75;14.75;;;;;23.72;29.67;101265.19;243459;1177;71695;-75
2023/11/30 06:29:18;;;;;;;;;12.50;12.50;;;;;23.71;29.72;101273.38;243548;1191;73486;-75
2023/11/30 06:34:22;;;;;;;;;10.50;10.50;;;;;23.75;29.48;101275.51;245407;1183;73217;-75
2023/11/30 06:39:26;;;;;;;;;11.25;11.00;;;;;23.89;29.40;101271.27;245406;1191;73714;-75
2023/11/30 06:44:30;;;;;;;;;13.50;13.50;;;;;23.99;29.26;101275.05;245455;1183;72722;-75
2023/11/30 06:49:34;;;;;;;;;14.75;11.25;;;;;24.05;29.17;101275.81;245451;1191;74043;-75
2023/11/30 06:54:38;;;;;;;;;12.50;12.50;;;;;24.09;28.98;101279.47;245475;1178;73752;-75
2023/11/30 06:59:43;;;;;;;;;12.33;12.33;;;;;24.12;28.91;101275.91;245390;1183;73581;-75
2023/11/30 07:04:46;;;;;;;;;13.00;12.00;;;;;24.14;28.91;101273.98;245388;1183;72830;-75
2023/11/30 07:09:51;;;;;;;;;12.75;12.75;;;;;24.15;28.92;101283.35;245396;1183;73508;-75
2023/11/30 07:14:55;;;;;;;;;12.00;12.00;;;;;24.16;28.99;101292.30;245456;1177;73654;-75
2023/11/30 07:19:59;;;;;;;;;13.75;13.25;;;;;24.16;28.93;101295.02;245402;1183;73679;-74
2023/11/30 07:25:04;;;;;;;;;11.75;11.75;;;;;24.15;28.83;101298.35;245449;1191;72708;-74
2023/11/30 07:30:10;;;;;;;;;11.00;11.00;;;;;24.16;28.79;101308.52;245434;1177;73781;-74
2023/11/30 07:35:15;;;;;;;;;11.00;10.50;;;;;24.17;28.90;101317.47;245419;1183;73143;-75
2023/11/30 07:40:21;;;;;;;;;11.75;11.75;;;;;24.15;28.92;101324.13;245443;1177;72365;-74
2023/11/30 07:45:26;;;;;;;;;14.00;14.00;;;;;24.15;28.79;101335.23;245430;1183;73278;-75
2023/11/30 07:50:30;;;;;;;;;12.75;10.25;;;;;24.15;28.90;101341.87;245410;1177;73188;-75
2023/11/30 07:55:34;;;;;;;;;16.00;16.00;;;;;24.15;28.93;101344.20;245408;1177;73806;-75
2023/11/30 08:00:38;;;;;;;;;10.33;10.33;;;;;24.15;28.91;101350.55;245429;1183;73047;-75
2023/11/30 08:05:43;;;;;;;;;12.75;12.75;;;;;24.15;28.98;101356.92;245442;1182;73932;-75
2023/11/30 08:10:48;;;;;;;;;12.67;12.67;;;;;24.14;28.94;101367.89;245437;1182;73413;-76
2023/11/30 08:15:52;;;;;;;;;13.25;12.75;;;;;24.15;28.87;101369.46;245465;1183;73641;-75
2023/11/30 08:20:58;;;;;;;;;14.00;14.00;;;;;24.15;28.96;101367.73;245381;1180;73523;-75
2023/11/30 08:26:03;;;;;;;;;13.25;13.25;;;;;24.14;28.89;101355.09;245425;1178;72929;-75
2023/11/30 08:31:08;;;;;;;;;11.50;11.50;;;;;24.14;28.93;101348.27;245434;1177;73351;-75
2023/11/30 08:36:12;;;;;;;;;12.50;12.50;;;;;24.14;29.00;101345.08;245446;1191;73440;-75
2023/11/30 08:41:17;;;;;;;;;14.00;14.00;;;;;24.14;28.94;101340.70;245472;1177;74169;-75
2023/11/30 08:46:21;;;;;;;;;14.50;14.50;;;;;24.13;28.94;101335.36;245240;1183;73094;-75
2023/11/30 08:51:25;;;;;;;;;12.67;12.67;;;;;24.13;28.99;101319.13;245433;1183;72868;-75
2023/11/30 08:56:29;;;;;;;;;12.50;12.00;;;;;24.12;29.04;101297.34;245425;1191;73392;-75
2023/11/30 09:01:34;;;;;;;;;14.50;14.50;;;;;24.12;29.00;101288.65;245438;1191;73463;-75
2023/11/30 09:06:38;;;;;;;;;12.75;12.75;;;;;24.14;29.01;101293.20;245441;1182;73701;-76
2023/11/30 09:11:45;;;;;;;;;14.75;13.00;;;;;24.14;28.93;101302.65;245417;1183;73715;-75
2023/11/30 09:16:49;;;;;;;;;13.25;12.75;;;;;24.13;28.97;101299.95;245442;1183;73644;-75
2023/11/30 09:21:53;;;;;;;;;14.75;14.75;;;;;24.13;28.81;101287.22;245323;1180;73590;-75
2023/11/30 09:26:57;;;;;;;;;11.00;11.00;;;;;24.14;28.84;101278.94;245357;1180;73417;-75
2023/11/30 09:32:01;;;;;;;;;11.50;11.50;;;;;24.14;29.04;101275.94;245447;1183;73353;-75
2023/11/30 09:37:04;;;;;;;;;14.75;13.25;;;;;24.14;28.80;101265.83;245433;1183;73141;-75
2023/11/30 09:42:09;;;;;;;;;13.75;13.75;;;;;24.15;28.96;101253.40;245421;1180;73628;-75
2023/11/30 09:47:13;;;;;;;;;13.50;13.50;;;;;24.16;28.99;101243.60;245394;1179;73185;-75
2023/11/30 09:52:17;;;;;;;;;14.75;14.75;;;;;24.18;28.94;101232.80;245417;1183;73427;-74
2023/11/30 09:57:21;;;;;;;;;14.25;13.75;;;;;24.21;29.01;101239.89;245410;1182;73653;-75
2023/11/30 10:02:27;;;;;;;;;14.25;13.75;;;;;24.22;28.87;101247.40;245412;1183;74463;-75
2023/11/30 10:07:32;;;;;;;;;12.00;12.00;;;;;24.25;28.92;101248.02;245442;1184;73785;-75
2023/11/30 10:12:39;;;;;;;;;12.00;11.50;;;;;24.27;28.83;101245.86;245426;1191;72804;-75
2023/11/30 10:17:43;;;;;;;;;14.00;14.00;;;;;24.28;28.74;101239.71;245504;1182;73691;-75
2023/11/30 10:22:48;;;;;;;;;14.50;12.75;;;;;24.27;28.79;101240.93;245436;1182;74147;-75
2023/11/30 10:27:54;;;;;;;;;8.00;8.00;;;;;24.26;28.93;101238.05;245433;1179;72919;-75
2023/11/30 10:33:00;;;;;;;;;11.75;11.75;;;;;24.24;28.86;101242.19;245451;1179;72775;-75
2023/11/30 10:38:05;;;;;;;;;13.50;13.50;;;;;24.22;28.93;101238.82;245427;1182;72074;-75
2023/11/30 10:43:09;;;;;;;;;15.25;13.50;;;;;24.20;28.91;101241.45;245418;1183;73389;-75
2023/11/30 10:48:13;;;;;;;;;12.25;12.00;;;;;24.17;28.99;101246.91;245464;1180;73466;-75
2023/11/30 10:53:45;;;;;;;;;13.75;13.25;;;;;24.16;28.95;101248.69;245451;1182;73282;-75
2023/11/30 10:58:50;;;;;;;;;13.75;13.25;;;;;24.16;29.00;101254.25;245440;1180;73612;-75
2023/11/30 11:03:57;;;;;;;;;12.25;12.00;;;;;24.15;29.00;101234.07;245461;1183;73660;-76
2023/11/30 11:09:09;;;;;;;;;13.25;13.25;;;;;24.16;28.90;101228.25;245424;1184;73244;-75
2023/11/30 11:14:33;;;;;;;;;13.67;13.67;;;;;24.16;29.00;101217.24;245384;1180;73356;-75
2023/11/30 11:19:39;;;;;;;;;13.00;13.00;;;;;24.14;28.85;101207.80;245445;1180;73665;-75
2023/11/30 11:24:46;;;;;;;;;14.00;14.00;;;;;24.14;28.97;101207.71;245355;1183;73562;-75
2023/11/30 11:29:51;;;;;;;;;12.25;12.25;;;;;24.14;28.92;101191.11;245422;1179;73778;-75
2023/11/30 11:34:54;;;;;;;;;13.25;13.25;;;;;24.13;29.04;101177.70;245378;1183;73732;-75
2023/11/30 11:40:00;;;;;;;;;12.50;12.50;;;;;24.12;28.93;101186.23;245429;1179;72916;-74
2023/11/30 11:45:05;;;;;;;;;14.25;14.25;;;;;24.12;29.08;101185.06;245416;1191;73089;-75
2023/11/30 11:50:12;;;;;;;;;15.25;15.25;;;;;24.11;28.95;101192.14;245417;1182;73669;-75
2023/11/30 11:55:16;;;;;;;;;12.25;12.25;;;;;24.11;28.84;101191.00;245422;1183;73371;-75
2023/11/30 12:00:21;;;;;;;;;12.00;12.00;;;;;24.11;28.84;101169.64;245437;1182;74086;-75
2023/11/30 12:05:27;;;;;;;;;12.75;12.75;;;;;24.10;28.89;101172.73;245493;1183;74263;-76
2023/11/30 12:10:39;;;;;;;;;13.75;13.50;;;;;24.08;28.92;101158.96;245429;1183;73256;-75
2023/11/30 12:15:43;;;;;;;;;16.25;14.75;;;;;24.06;29.05;101158.58;245424;1178;73267;-75
2023/11/30 12:20:51;;;;;;;;;14.00;14.00;;;;;24.06;28.99;101162.23;245453;1179;73860;-75
2023/11/30 12:25:56;;;;;;;;;12.50;12.50;;;;;24.05;28.95;101145.00;245356;1180;73245;-76
2023/11/30 12:31:00;;;;;;;;;16.00;16.00;;;;;24.05;29.03;101128.27;245382;1191;73233;-75
2023/11/30 12:36:04;;;;;;;;;13.00;13.00;;;;;24.05;29.00;101128.07;245085;1183;72941;-76
2023/11/30 12:41:09;;;;;;;;;14.67;14.00;;;;;24.04;29.01;101128.40;245283;1183;74162;-76
2023/11/30 12:46:14;;;;;;;;;15.75;15.25;;;;;24.03;29.03;101136.64;245413;1182;73210;-75
2023/11/30 12:51:19;;;;;;;;;15.00;15.00;;;;;24.02;29.05;101132.70;245419;1183;73426;-75
2023/11/30 12:56:27;;;;;;;;;16.00;15.33;;;;;24.01;29.14;101123.34;245424;1180;73254;-75
2023/11/30 13:01:31;;;;;;;;;15.00;13.50;;;;;24.00;29.03;101129.27;245442;1183;73104;-76
2023/11/30 13:06:35;;;;;;;;;13.00;12.33;;;;;23.98;29.08;101120.70;245445;1182;73359;-75
2023/11/30 13:11:40;;;;;;;;;14.00;14.00;;;;;23.98;29.12;101120.02;245419;1179;73001;-75
2023/11/30 13:16:44;;;;;;;;;14.00;14.00;;;;;23.97;29.23;101121.55;245450;1183;73277;-75
2023/11/30 13:21:52;;;;;;;;;15.25;14.75;;;;;23.96;29.23;101124.89;245465;1183;72027;-75
2023/11/30 13:26:56;;;;;;;;;15.50;15.50;;;;;23.95;29.22;101117.88;245469;1182;74064;-75
2023/11/30 13:32:00;;;;;;;;;15.50;15.50;;;;;23.94;29.22;101130.54;245466;1184;72965;-75
2023/11/30 13:37:04;;;;;;;;;13.00;13.00;;;;;23.94;29.12;101129.28;245407;1183;74511;-75
2023/11/30 13:42:09;;;;;;;;;11.25;11.25;;;;;23.93;29.19;101133.56;245438;1183;73921;-75
2023/11/30 13:47:14;;;;;;;;;15.75;15.75;;;;;23.93;29.10;101136.91;245492;1182;72824;-75
2023/11/30 13:52:18;;;;;;;;;16.00;16.00;;;;;23.92;29.25;101132.89;245445;1182;73582;-75
2023/11/30 13:57:22;;;;;;;;;17.75;17.75;;;;;23.90;29.24;101145.48;245376;1180;73205;-75
2023/11/30 14:02:26;;;;;;;;;13.00;12.33;;;;;23.90;29.24;101147.96;245398;1182;73773;-75
2023/11/30 14:07:32;;;;;;;;;15.25;14.00;;;;;23.89;29.16;101146.40;245445;1184;72809;-76
2023/11/30 14:12:41;;;;;;;;;16.50;14.50;;;;;23.88;29.31;101137.20;245457;1179;73203;-76
2023/11/30 14:17:46;;;;;;;;;14.25;13.75;;;;;23.87;29.23;101122.79;245487;1182;73147;-75
2023/11/30 14:22:50;;;;;;;;;17.25;14.50;;;;;23.86;29.20;101102.16;245432;1182;72231;-75
2023/11/30 14:27:54;;;;;;;;;14.00;13.75;;;;;23.85;29.24;101085.25;245432;1184;72879;-75
2023/11/30 14:32:58;;;;;;;;;17.00;17.00;;;;;23.84;29.22;101093.98;245451;1183;73060;-75
2023/11/30 14:38:02;;;;;;;;;15.33;15.00;;;;;23.83;29.17;101084.61;245426;1183;73327;-75
2023/11/30 14:43:06;;;;;;;;;13.00;13.00;;;;;23.82;29.22;101074.70;245429;1177;74430;-75
2023/11/30 14:48:11;;;;;;;;;14.75;14.75;;;;;23.82;29.28;101062.45;245425;1177;72812;-75
2023/11/30 14:53:15;;;;;;;;;15.25;15.25;;;;;23.80;29.19;101068.26;245464;1183;72805;-75
2023/11/30 14:58:20;;;;;;;;;14.25;14.25;;;;;23.80;29.28;101060.70;245435;1180;73664;-75
2023/11/30 15:03:23;;;;;;;;;15.00;15.00;;;;;23.80;29.25;101061.95;245441;1177;73259;-75
2023/11/30 15:08:28;;;;;;;;;16.50;15.00;;;;;23.78;29.34;101057.63;245441;1183;73260;-76
2023/11/30 15:13:32;;;;;;;;;15.00;13.25;;;;;23.77;29.33;101063.44;245424;1183;73408;-75
2023/11/30 15:18:36;;;;;;;;;18.00;16.67;;;;;23.77;29.24;101045.51;245451;1180;74177;-76
2023/11/30 15:23:40;;;;;;;;;14.25;12.50;;;;;23.77;29.26;101042.06;245434;1183;73016;-76
2023/11/30 15:28:44;;;;;;;;;16.00;14.25;;;;;23.75;29.31;101031.69;245422;1178;73329;-76
2023/11/30 15:33:48;;;;;;;;;19.50;15.75;;;;;23.75;29.25;101029.93;245438;1182;73296;-75
2023/11/30 15:38:53;;;;;;;;;17.00;17.00;;;;;23.74;29.36;101023.13;245445;1179;73524;-75
2023/11/30 15:43:57;;;;;;;;;15.50;15.25;;;;;23.74;29.28;101025.52;245459;1180;72927;-75
2023/11/30 15:49:02;;;;;;;;;17.50;16.50;;;;;23.73;29.34;101033.45;245410;1182;73561;-75
2023/11/30 15:54:06;;;;;;;;;16.25;16.25;;;;;23.73;29.29;101033.33;245431;1182;73125;-75
2023/11/30 15:59:10;;;;;;;;;15.67;15.67;;;;;23.72;29.23;101030.48;245385;1183;73395;-75
2023/11/30 16:04:14;;;;;;;;;14.50;14.00;;;;;23.72;29.29;101026.54;245462;1180;73863;-75
2023/11/30 16:09:18;;;;;;;;;17.25;16.50;;;;;23.71;29.35;101010.64;245478;1182;72977;-75
2023/11/30 16:14:22;;;;;;;;;14.75;14.75;;;;;23.70;29.39;101007.82;245431;1183;74311;-75
2023/11/30 16:19:26;;;;;;;;;15.00;15.00;;;;;23.70;29.40;100994.93;245444;1179;73611;-75
2023/11/30 16:24:30;;;;;;;;;13.00;13.00;;;;;23.70;29.32;100981.27;245437;1177;73695;-76
2023/11/30 16:29:36;;;;;;;;;13.25;13.25;;;;;23.69;29.27;100972.27;245458;1183;73865;-75
2023/11/30 16:34:40;;;;;;;;;16.25;16.25;;;;;23.69;29.38;100966.10;245427;1183;73488;-75
2023/11/30 16:39:46;;;;;;;;;16.00;13.67;;;;;23.68;29.24;100956.83;245404;1183;72359;-75
2023/11/30 16:44:50;;;;;;;;;15.25;15.25;;;;;23.67;29.38;100954.58;245393;1179;72940;-75
2023/11/30 16:49:54;;;;;;;;;15.75;15.75;;;;;23.66;29.29;100957.56;245407;1183;74285;-75
2023/11/30 16:54:58;;;;;;;;;18.00;17.33;;;;;23.66;29.18;100941.81;245372;1183;72852;-75
2023/11/30 17:00:03;;;;;;;;;17.75;16.25;;;;;23.66;29.22;100938.33;245397;1182;72785;-75
2023/11/30 17:05:08;;;;;;;;;16.00;16.00;;;;;23.65;29.31;100946.82;245481;1177;74125;-75
2023/11/30 17:10:12;;;;;;;;;16.00;16.00;;;;;23.65;29.34;100944.10;245447;1177;73308;-75
2023/11/30 17:15:17;;;;;;;;;17.00;17.00;;;;;23.64;29.37;100932.41;245383;1183;72913;-75
2023/11/30 17:20:21;;;;;;;;;16.67;16.67;;;;;23.64;29.16;100935.14;245412;1183;74157;-75
2023/11/30 17:25:26;;;;;;;;;18.00;17.75;;;;;23.63;29.36;100923.83;245393;1191;72689;-75
2023/11/30 17:30:33;;;;;;;;;14.50;14.50;;;;;23.63;29.38;100920.34;245401;1177;72755;-75
2023/11/30 17:35:38;;;;;;;;;16.50;16.50;;;;;23.62;29.33;100917.36;245433;1183;72982;-75
2023/11/30 17:40:42;;;;;;;;;15.50;15.50;;;;;23.62;29.32;100914.84;245412;1183;72601;-75
2023/11/30 17:45:46;;;;;;;;;16.00;16.00;;;;;23.62;29.29;100892.70;245427;1178;73190;-75
2023/11/30 17:50:50;;;;;;;;;19.25;18.50;;;;;23.61;29.20;100889.52;245402;1183;73020;-75
2023/11/30 17:55:55;;;;;;;;;16.00;16.00;;;;;23.61;29.34;100896.08;245373;1182;73097;-75
2023/11/30 18:00:59;;;;;;;;;17.75;16.50;;;;;23.60;29.41;100889.99;245388;1183;73865;-75
2023/11/30 18:06:05;;;;;;;;;16.67;16.33;;;;;23.60;29.24;100878.63;245429;1178;73938;-75
2023/11/30 18:11:09;;;;;;;;;20.75;18.50;;;;;23.59;29.44;100865.89;245360;1183;73471;-75
2023/11/30 18:16:13;;;;;;;;;15.25;15.25;;;;;23.59;29.11;100849.09;245369;1178;73568;-75
2023/11/30 18:21:17;;;;;;;;;18.00;18.00;;;;;23.59;29.27;100834.68;245386;1183;72740;-75
2023/11/30 18:26:22;;;;;;;;;16.50;16.50;;;;;23.58;29.29;100822.97;245431;1178;73640;-75
2023/11/30 18:31:26;;;;;;;;;17.00;17.00;;;;;23.58;29.33;100824.65;245427;1177;74109;-75
2023/11/30 18:36:30;;;;;;;;;14.00;13.50;;;;;23.58;29.48;100832.84;245269;1182;72686;-75
2023/11/30 18:41:35;;;;;;;;;15.00;15.00;;;;;23.53;29.28;100822.14;243436;1177;73643;-74
2023/11/30 18:46:40;;;;;;;;;15.75;15.75;;;;;23.37;29.58;100802.16;243468;1177;73305;-74
2023/11/30 18:51:44;;;;;;;;;17.25;17.25;;;;;23.29;29.78;100797.95;243496;1183;74399;-74
2023/11/30 18:56:48;;;;;;;;;20.75;19.00;;;;;23.23;30.03;100794.70;243488;1184;76433;-74
2023/11/30 19:01:52;;;;;;;;;17.50;16.00;;;;;23.18;29.93;100777.81;243421;1183;73115;-74
2023/11/30 19:06:57;;;;;;;;;19.00;16.75;;;;;23.16;29.77;100774.04;243514;1190;72962;-74
2023/11/30 19:12:02;;;;;;;;;18.00;18.00;;;;;23.15;30.05;100791.27;243526;1190;73595;-74
2023/11/30 19:17:08;;;;;;;;;16.25;16.25;;;;;23.13;29.97;100790.53;243524;1183;72770;-74
2023/11/30 19:22:13;;;;;;;;;18.75;15.50;;;;;23.12;30.07;100771.84;243544;1178;73860;-74
2023/11/30 19:27:17;;;;;;;;;20.67;18.00;;;;;23.10;30.02;100750.06;243522;1183;72719;-74
2023/11/30 19:32:21;;;;;;;;;17.50;17.50;;;;;23.10;29.85;100743.98;243546;1183;74106;-74
2023/11/30 19:37:25;;;;;;;;;18.50;15.00;;;;;23.09;30.02;100730.46;243472;1177;73625;-74
2023/11/30 19:42:29;;;;;;;;;17.25;16.75;;;;;23.08;30.12;100714.41;243425;1180;72049;-74
2023/11/30 19:47:33;;;;;;;;;16.50;14.00;;;;;23.07;30.12;100707.29;243518;1183;74060;-74
2023/11/30 19:52:39;;;;;;;;;15.75;15.75;;;;;23.07;30.04;100699.15;243477;1180;73792;-74
2023/11/30 19:57:44;;;;;;;;;17.50;17.50;;;;;23.07;30.19;100695.55;243487;1184;73812;-74
2023/11/30 20:02:49;;;;;;;;;15.00;15.00;;;;;23.06;30.14;100685.81;243520;1184;73350;-75
2023/11/30 20:07:56;;;;;;;;;16.67;16.00;;;;;23.05;29.92;100661.17;243304;1182;74138;-75
2023/11/30 20:13:03;;;;;;;;;18.50;18.50;;;;;23.04;29.93;100653.01;242989;1183;73601;-75
2023/11/30 20:18:07;;;;;;;;;15.00;15.00;;;;;23.04;29.99;100646.89;243039;1182;73871;-74
2023/11/30 20:23:12;;;;;;;;;19.25;17.75;;;;;23.03;30.03;100644.37;243081;1183;72572;-75
2023/11/30 20:28:17;;;;;;;;;17.25;17.25;;;;;23.03;29.99;100645.72;243110;1177;73218;-74
2023/11/30 20:33:21;;;;;;;;;16.67;16.67;;;;;23.04;30.23;100637.18;243114;1180;74007;-74
2023/11/30 20:38:28;;;;;;;;;16.67;15.67;;;;;23.04;29.94;100640.67;242973;1180;73620;-74
2023/11/30 20:43:32;;;;;;;;;17.50;17.50;;;;;23.03;30.10;100631.33;242915;1177;73473;-74
2023/11/30 20:48:38;;;;;;;;;15.50;15.50;;;;;23.05;29.99;100633.73;245412;1180;72373;-74
2023/11/30 20:53:42;;;;;;;;;16.75;16.50;;;;;23.20;29.59;100633.27;245398;1183;73408;-75
2023/11/30 20:58:47;;;;;;;;;15.75;15.50;;;;;23.31;29.43;100626.82;245404;1183;73084;-76
2023/11/30 21:03:52;;;;;;;;;15.75;15.75;;;;;23.36;29.28;100614.95;245371;1191;74149;-76
2023/11/30 21:08:58;;;;;;;;;14.75;14.25;;;;;23.39;29.40;100611.83;245390;1183;73226;-75
2023/11/30 21:14:02;;;;;;;;;17.00;17.00;;;;;23.41;29.10;100600.42;245259;1182;72601;-75
2023/11/30 21:19:09;;;;;;;;;15.50;14.25;;;;;23.43;29.18;100593.55;245392;1182;73396;-75
2023/11/30 21:24:13;;;;;;;;;15.50;15.50;;;;;23.43;29.18;100604.36;245383;1184;72833;-75
2023/11/30 21:29:17;;;;;;;;;18.00;16.50;;;;;23.43;29.21;100607.27;245382;1178;73124;-75
2023/11/30 21:34:21;;;;;;;;;17.50;16.50;;;;;23.43;29.07;100596.18;245368;1182;73278;-75
2023/11/30 21:39:25;;;;;;;;;14.25;14.25;;;;;23.44;29.14;100588.33;245413;1183;72856;-75
2023/11/30 21:44:30;;;;;;;;;15.00;15.00;;;;;23.44;29.26;100568.84;245390;1177;72930;-75
2023/11/30 21:49:35;;;;;;;;;15.00;15.00;;;;;23.43;29.15;100562.28;245385;1177;72999;-75
2023/11/30 21:54:39;;;;;;;;;18.75;18.75;;;;;23.44;29.08;100566.06;245388;1179;73656;-75
2023/11/30 21:59:43;;;;;;;;;18.33;17.67;;;;;23.43;29.13;100558.34;245409;1183;71766;-75
2023/11/30 22:04:47;;;;;;;;;17.50;17.50;;;;;23.43;29.10;100544.20;245393;1182;72782;-75
2023/11/30 22:09:52;;;;;;;;;16.50;15.50;;;;;23.43;29.12;100535.31;245391;1177;73073;-74
2023/11/30 22:14:56;;;;;;;;;17.00;17.00;;;;;23.43;29.13;100539.45;245374;1177;72932;-74
2023/11/30 22:20:00;;;;;;;;;16.00;16.00;;;;;23.43;29.14;100528.58;245380;1177;73810;-74
2023/11/30 22:25:04;;;;;;;;;13.33;13.33;;;;;23.42;29.20;100528.30;245378;1183;73042;-75
2023/11/30 22:30:09;;;;;;;;;15.50;15.50;;;;;23.42;29.25;100529.94;245414;1183;73381;-75
2023/11/30 22:35:13;;;;;;;;;15.75;14.75;;;;;23.42;29.18;100518.47;245423;1180;73919;-75
2023/11/30 22:40:17;;;;;;;;;15.50;15.50;;;;;23.42;29.16;100515.36;245406;1181;73147;-75
2023/11/30 22:45:21;;;;;;;;;15.00;13.50;;;;;23.42;29.12;100505.05;245392;1179;73367;-75
2023/11/30 22:50:25;;;;;;;;;14.33;14.33;;;;;23.42;29.09;100489.81;245397;1183;73383;-75